sensor_id;sensor_type;location;lat;lon;timestamp;P1;durP1;ratioP1;P2;durP2;ratioP2
44169;SDS011;29836;52.286;9.576;2024-02-21T00:01:35;22.70;;;8.13;;
44169;SDS011;29836;52.286;9.576;2024-02-21T00:04:00;20.13;;;8.85;;
44169;SDS011;29836;52.286;9.576;2024-02-21T00:06:27;17.60;;;9.00;;
44169;SDS011;29836;52.286;9.576;2024-02-21T00:08:52;23.75;;;9.85;;
44169;SDS011;29836;52.286;9.576;2024-02-21T00:11:18;18.45;;;9.20;;
44169;SDS011;29836;52.286;9.576;2024-02-21T00:13:43;21.88;;;9.23;;
44169;SDS011;29836;52.286;9.576;2024-02-21T00:16:09;22.90;;;9.25;;
44169;SDS011;29836;52.286;9.576;2024-02-21T00:18:36;27.40;;;9.55;;
44169;SDS011;29836;52.286;9.576;2024-02-21T00:21:01;22.17;;;9.27;;
44169;SDS011;29836;52.286;9.576;2024-02-21T00:23:28;23.65;;;9.23;;
44169;SDS011;29836;52.286;9.576;2024-02-21T00:25:53;23.08;;;9.95;;
44169;SDS011;29836;52.286;9.576;2024-02-21T00:28:19;22.25;;;9.20;;
44169;SDS011;29836;52.286;9.576;2024-02-21T00:30:44;24.13;;;9.60;;
44169;SDS011;29836;52.286;9.576;2024-02-21T00:33:12;28.17;;;10.50;;
44169;SDS011;29836;52.286;9.576;2024-02-21T00:35:38;21.85;;;10.38;;
44169;SDS011;29836;52.286;9.576;2024-02-21T00:38:04;23.65;;;9.68;;
44169;SDS011;29836;52.286;9.576;2024-02-21T00:40:29;22.73;;;10.45;;
44169;SDS011;29836;52.286;9.576;2024-02-21T00:42:55;28.67;;;10.48;;
44169;SDS011;29836;52.286;9.576;2024-02-21T00:45:20;28.02;;;10.38;;
44169;SDS011;29836;52.286;9.576;2024-02-21T00:47:46;27.35;;;11.18;;
44169;SDS011;29836;52.286;9.576;2024-02-21T00:50:12;26.17;;;10.15;;
44169;SDS011;29836;52.286;9.576;2024-02-21T00:52:37;26.98;;;10.32;;
44169;SDS011;29836;52.286;9.576;2024-02-21T00:55:03;23.58;;;10.18;;
44169;SDS011;29836;52.286;9.576;2024-02-21T00:57:29;23.05;;;10.68;;
44169;SDS011;29836;52.286;9.576;2024-02-21T00:59:55;25.65;;;10.15;;
44169;SDS011;29836;52.286;9.576;2024-02-21T01:02:20;25.52;;;10.70;;
44169;SDS011;29836;52.286;9.576;2024-02-21T01:04:46;21.50;;;10.10;;
44169;SDS011;29836;52.286;9.576;2024-02-21T01:07:11;26.10;;;9.27;;
44169;SDS011;29836;52.286;9.576;2024-02-21T01:09:37;24.90;;;10.73;;
44169;SDS011;29836;52.286;9.576;2024-02-21T01:12:02;26.40;;;10.63;;
44169;SDS011;29836;52.286;9.576;2024-02-21T01:14:29;21.38;;;9.65;;
44169;SDS011;29836;52.286;9.576;2024-02-21T01:16:54;24.40;;;10.55;;
44169;SDS011;29836;52.286;9.576;2024-02-21T01:19:20;19.52;;;9.80;;
44169;SDS011;29836;52.286;9.576;2024-02-21T01:21:45;23.10;;;10.27;;
44169;SDS011;29836;52.286;9.576;2024-02-21T01:24:11;27.30;;;10.25;;
44169;SDS011;29836;52.286;9.576;2024-02-21T01:26:36;23.83;;;9.80;;
44169;SDS011;29836;52.286;9.576;2024-02-21T01:29:02;26.52;;;10.68;;
44169;SDS011;29836;52.286;9.576;2024-02-21T01:31:27;27.23;;;10.07;;
44169;SDS011;29836;52.286;9.576;2024-02-21T01:33:53;23.05;;;9.98;;
44169;SDS011;29836;52.286;9.576;2024-02-21T01:36:18;20.70;;;9.68;;
44169;SDS011;29836;52.286;9.576;2024-02-21T01:38:44;22.70;;;10.07;;
44169;SDS011;29836;52.286;9.576;2024-02-21T01:41:09;23.13;;;9.23;;
44169;SDS011;29836;52.286;9.576;2024-02-21T01:43:35;21.58;;;8.90;;
44169;SDS011;29836;52.286;9.576;2024-02-21T01:46:00;18.40;;;10.40;;
44169;SDS011;29836;52.286;9.576;2024-02-21T01:48:26;19.13;;;9.27;;
44169;SDS011;29836;52.286;9.576;2024-02-21T01:50:53;20.27;;;9.38;;
44169;SDS011;29836;52.286;9.576;2024-02-21T01:53:22;19.65;;;9.05;;
44169;SDS011;29836;52.286;9.576;2024-02-21T01:55:52;23.15;;;9.48;;
44169;SDS011;29836;52.286;9.576;2024-02-21T01:58:18;20.27;;;9.80;;
44169;SDS011;29836;52.286;9.576;2024-02-21T02:00:45;19.85;;;9.20;;
44169;SDS011;29836;52.286;9.576;2024-02-21T02:03:13;18.65;;;9.85;;
44169;SDS011;29836;52.286;9.576;2024-02-21T02:05:45;21.80;;;10.07;;
44169;SDS011;29836;52.286;9.576;2024-02-21T02:08:12;20.50;;;9.85;;
44169;SDS011;29836;52.286;9.576;2024-02-21T02:10:43;24.23;;;10.43;;
44169;SDS011;29836;52.286;9.576;2024-02-21T02:13:09;22.98;;;10.23;;
44169;SDS011;29836;52.286;9.576;2024-02-21T02:18:07;26.27;;;10.73;;
44169;SDS011;29836;52.286;9.576;2024-02-21T02:20:33;20.88;;;10.70;;
44169;SDS011;29836;52.286;9.576;2024-02-21T02:22:59;22.73;;;10.05;;
44169;SDS011;29836;52.286;9.576;2024-02-21T02:25:26;24.27;;;10.27;;
44169;SDS011;29836;52.286;9.576;2024-02-21T02:27:52;25.23;;;10.50;;
44169;SDS011;29836;52.286;9.576;2024-02-21T02:30:18;22.17;;;10.57;;
44169;SDS011;29836;52.286;9.576;2024-02-21T02:32:44;24.08;;;10.07;;
44169;SDS011;29836;52.286;9.576;2024-02-21T02:35:11;20.60;;;9.88;;
44169;SDS011;29836;52.286;9.576;2024-02-21T02:37:36;19.48;;;9.80;;
44169;SDS011;29836;52.286;9.576;2024-02-21T02:40:04;17.38;;;8.98;;
44169;SDS011;29836;52.286;9.576;2024-02-21T02:42:31;22.50;;;10.68;;
44169;SDS011;29836;52.286;9.576;2024-02-21T02:44:56;19.25;;;10.25;;
44169;SDS011;29836;52.286;9.576;2024-02-21T02:47:22;23.98;;;9.93;;
44169;SDS011;29836;52.286;9.576;2024-02-21T02:49:48;21.17;;;9.90;;
44169;SDS011;29836;52.286;9.576;2024-02-21T02:52:15;24.85;;;10.63;;
44169;SDS011;29836;52.286;9.576;2024-02-21T02:54:41;19.45;;;9.77;;
44169;SDS011;29836;52.286;9.576;2024-02-21T02:57:07;21.55;;;10.10;;
44169;SDS011;29836;52.286;9.576;2024-02-21T02:59:33;19.65;;;9.60;;
44169;SDS011;29836;52.286;9.576;2024-02-21T03:01:58;22.75;;;10.77;;
44169;SDS011;29836;52.286;9.576;2024-02-21T03:04:24;21.00;;;9.85;;
44169;SDS011;29836;52.286;9.576;2024-02-21T03:06:49;20.45;;;10.65;;
44169;SDS011;29836;52.286;9.576;2024-02-21T03:09:15;19.85;;;10.07;;
44169;SDS011;29836;52.286;9.576;2024-02-21T03:11:42;20.52;;;10.13;;
44169;SDS011;29836;52.286;9.576;2024-02-21T03:14:09;26.17;;;10.45;;
44169;SDS011;29836;52.286;9.576;2024-02-21T03:16:35;21.52;;;9.50;;
44169;SDS011;29836;52.286;9.576;2024-02-21T03:19:01;26.30;;;10.90;;
44169;SDS011;29836;52.286;9.576;2024-02-21T03:21:26;19.63;;;10.32;;
44169;SDS011;29836;52.286;9.576;2024-02-21T03:23:52;20.25;;;9.63;;
44169;SDS011;29836;52.286;9.576;2024-02-21T03:26:17;23.63;;;10.68;;
44169;SDS011;29836;52.286;9.576;2024-02-21T03:28:43;23.40;;;10.48;;
44169;SDS011;29836;52.286;9.576;2024-02-21T03:31:11;22.80;;;9.57;;
44169;SDS011;29836;52.286;9.576;2024-02-21T03:33:38;21.23;;;9.70;;
44169;SDS011;29836;52.286;9.576;2024-02-21T03:36:04;20.17;;;9.25;;
44169;SDS011;29836;52.286;9.576;2024-02-21T03:38:30;21.42;;;10.73;;
44169;SDS011;29836;52.286;9.576;2024-02-21T03:40:55;18.85;;;9.95;;
44169;SDS011;29836;52.286;9.576;2024-02-21T03:43:21;23.58;;;10.77;;
44169;SDS011;29836;52.286;9.576;2024-02-21T03:45:46;25.33;;;11.40;;
44169;SDS011;29836;52.286;9.576;2024-02-21T03:48:21;26.80;;;10.85;;
44169;SDS011;29836;52.286;9.576;2024-02-21T03:50:46;24.60;;;10.75;;
44169;SDS011;29836;52.286;9.576;2024-02-21T03:53:12;26.55;;;10.77;;
44169;SDS011;29836;52.286;9.576;2024-02-21T03:55:37;21.45;;;10.20;;
44169;SDS011;29836;52.286;9.576;2024-02-21T03:58:03;19.83;;;10.02;;
44169;SDS011;29836;52.286;9.576;2024-02-21T04:00:28;20.75;;;10.20;;
44169;SDS011;29836;52.286;9.576;2024-02-21T04:02:54;21.80;;;10.15;;
44169;SDS011;29836;52.286;9.576;2024-02-21T04:05:20;24.10;;;10.73;;
44169;SDS011;29836;52.286;9.576;2024-02-21T04:07:46;24.80;;;10.48;;
44169;SDS011;29836;52.286;9.576;2024-02-21T04:10:12;24.45;;;10.95;;
44169;SDS011;29836;52.286;9.576;2024-02-21T04:12:37;25.27;;;10.48;;
44169;SDS011;29836;52.286;9.576;2024-02-21T04:15:03;23.27;;;10.65;;
44169;SDS011;29836;52.286;9.576;2024-02-21T04:17:29;25.02;;;10.05;;
44169;SDS011;29836;52.286;9.576;2024-02-21T04:20:01;25.60;;;10.32;;
44169;SDS011;29836;52.286;9.576;2024-02-21T04:22:33;24.55;;;10.70;;
44169;SDS011;29836;52.286;9.576;2024-02-21T04:24:59;23.60;;;10.15;;
44169;SDS011;29836;52.286;9.576;2024-02-21T04:27:25;21.73;;;10.07;;
44169;SDS011;29836;52.286;9.576;2024-02-21T04:29:51;21.15;;;10.73;;
44169;SDS011;29836;52.286;9.576;2024-02-21T04:32:17;19.85;;;10.63;;
44169;SDS011;29836;52.286;9.576;2024-02-21T04:34:43;23.58;;;10.75;;
44169;SDS011;29836;52.286;9.576;2024-02-21T04:37:08;20.98;;;10.02;;
44169;SDS011;29836;52.286;9.576;2024-02-21T04:39:34;23.42;;;11.15;;
44169;SDS011;29836;52.286;9.576;2024-02-21T04:41:59;22.70;;;11.20;;
44169;SDS011;29836;52.286;9.576;2024-02-21T04:44:25;21.13;;;10.88;;
44169;SDS011;29836;52.286;9.576;2024-02-21T04:46:50;28.80;;;11.13;;
44169;SDS011;29836;52.286;9.576;2024-02-21T04:49:16;26.65;;;9.48;;
44169;SDS011;29836;52.286;9.576;2024-02-21T04:51:41;23.17;;;10.80;;
44169;SDS011;29836;52.286;9.576;2024-02-21T04:54:07;19.00;;;10.18;;
44169;SDS011;29836;52.286;9.576;2024-02-21T04:56:32;27.63;;;10.18;;
44169;SDS011;29836;52.286;9.576;2024-02-21T04:58:59;22.08;;;10.80;;
44169;SDS011;29836;52.286;9.576;2024-02-21T05:01:24;21.05;;;10.50;;
44169;SDS011;29836;52.286;9.576;2024-02-21T05:03:50;26.80;;;11.50;;
44169;SDS011;29836;52.286;9.576;2024-02-21T05:06:15;28.90;;;11.93;;
44169;SDS011;29836;52.286;9.576;2024-02-21T05:08:41;24.10;;;10.52;;
44169;SDS011;29836;52.286;9.576;2024-02-21T05:11:07;20.08;;;10.20;;
44169;SDS011;29836;52.286;9.576;2024-02-21T05:13:32;22.55;;;11.25;;
44169;SDS011;29836;52.286;9.576;2024-02-21T05:15:58;22.45;;;10.15;;
44169;SDS011;29836;52.286;9.576;2024-02-21T05:18:26;24.38;;;10.27;;
44169;SDS011;29836;52.286;9.576;2024-02-21T05:20:52;24.35;;;10.65;;
44169;SDS011;29836;52.286;9.576;2024-02-21T05:23:18;22.75;;;9.95;;
44169;SDS011;29836;52.286;9.576;2024-02-21T05:25:44;24.90;;;10.93;;
44169;SDS011;29836;52.286;9.576;2024-02-21T05:28:09;24.90;;;10.65;;
44169;SDS011;29836;52.286;9.576;2024-02-21T05:30:35;20.83;;;9.68;;
44169;SDS011;29836;52.286;9.576;2024-02-21T05:33:04;18.77;;;10.70;;
44169;SDS011;29836;52.286;9.576;2024-02-21T05:35:32;26.92;;;10.02;;
44169;SDS011;29836;52.286;9.576;2024-02-21T05:37:58;22.48;;;10.77;;
44169;SDS011;29836;52.286;9.576;2024-02-21T05:40:24;19.17;;;10.05;;
44169;SDS011;29836;52.286;9.576;2024-02-21T05:42:50;23.75;;;9.93;;
44169;SDS011;29836;52.286;9.576;2024-02-21T05:45:16;19.85;;;10.52;;
44169;SDS011;29836;52.286;9.576;2024-02-21T05:47:42;22.73;;;10.70;;
44169;SDS011;29836;52.286;9.576;2024-02-21T05:50:09;24.58;;;10.00;;
44169;SDS011;29836;52.286;9.576;2024-02-21T05:52:35;24.25;;;10.82;;
44169;SDS011;29836;52.286;9.576;2024-02-21T05:55:00;18.45;;;10.27;;
44169;SDS011;29836;52.286;9.576;2024-02-21T05:57:26;21.92;;;11.27;;
44169;SDS011;29836;52.286;9.576;2024-02-21T05:59:51;23.27;;;10.05;;
44169;SDS011;29836;52.286;9.576;2024-02-21T06:02:17;26.98;;;11.00;;
44169;SDS011;29836;52.286;9.576;2024-02-21T06:04:43;21.00;;;10.25;;
44169;SDS011;29836;52.286;9.576;2024-02-21T06:07:09;17.88;;;10.27;;
44169;SDS011;29836;52.286;9.576;2024-02-21T06:09:34;19.65;;;9.85;;
44169;SDS011;29836;52.286;9.576;2024-02-21T06:12:00;22.80;;;10.55;;
44169;SDS011;29836;52.286;9.576;2024-02-21T06:14:26;23.23;;;11.13;;
44169;SDS011;29836;52.286;9.576;2024-02-21T06:16:51;20.20;;;9.75;;
44169;SDS011;29836;52.286;9.576;2024-02-21T06:19:17;21.75;;;10.30;;
44169;SDS011;29836;52.286;9.576;2024-02-21T06:21:42;20.25;;;10.30;;
44169;SDS011;29836;52.286;9.576;2024-02-21T06:24:08;26.77;;;11.20;;
44169;SDS011;29836;52.286;9.576;2024-02-21T06:26:33;22.30;;;11.00;;
44169;SDS011;29836;52.286;9.576;2024-02-21T06:28:59;19.63;;;10.25;;
44169;SDS011;29836;52.286;9.576;2024-02-21T06:31:25;23.52;;;10.70;;
44169;SDS011;29836;52.286;9.576;2024-02-21T06:33:50;20.80;;;10.30;;
44169;SDS011;29836;52.286;9.576;2024-02-21T06:36:16;23.02;;;10.63;;
44169;SDS011;29836;52.286;9.576;2024-02-21T06:38:41;31.05;;;12.00;;
44169;SDS011;29836;52.286;9.576;2024-02-21T06:41:14;28.00;;;11.07;;
44169;SDS011;29836;52.286;9.576;2024-02-21T06:43:44;23.25;;;11.23;;
44169;SDS011;29836;52.286;9.576;2024-02-21T06:46:11;23.70;;;10.93;;
44169;SDS011;29836;52.286;9.576;2024-02-21T06:48:36;22.95;;;11.32;;
44169;SDS011;29836;52.286;9.576;2024-02-21T06:51:02;25.15;;;10.98;;
44169;SDS011;29836;52.286;9.576;2024-02-21T06:53:28;22.58;;;10.30;;
44169;SDS011;29836;52.286;9.576;2024-02-21T06:55:54;24.90;;;10.98;;
44169;SDS011;29836;52.286;9.576;2024-02-21T06:58:19;21.38;;;10.07;;
44169;SDS011;29836;52.286;9.576;2024-02-21T07:00:45;23.95;;;9.98;;
44169;SDS011;29836;52.286;9.576;2024-02-21T07:03:10;22.75;;;9.93;;
44169;SDS011;29836;52.286;9.576;2024-02-21T07:05:36;18.42;;;9.60;;
44169;SDS011;29836;52.286;9.576;2024-02-21T07:08:01;20.92;;;9.63;;
44169;SDS011;29836;52.286;9.576;2024-02-21T07:10:28;23.38;;;9.90;;
44169;SDS011;29836;52.286;9.576;2024-02-21T07:12:54;19.98;;;9.43;;
44169;SDS011;29836;52.286;9.576;2024-02-21T07:15:20;20.92;;;9.80;;
44169;SDS011;29836;52.286;9.576;2024-02-21T07:17:45;17.75;;;8.93;;
44169;SDS011;29836;52.286;9.576;2024-02-21T07:20:11;18.60;;;9.73;;
44169;SDS011;29836;52.286;9.576;2024-02-21T07:22:37;22.33;;;9.40;;
44169;SDS011;29836;52.286;9.576;2024-02-21T07:25:02;19.95;;;8.98;;
44169;SDS011;29836;52.286;9.576;2024-02-21T07:27:28;19.83;;;9.00;;
44169;SDS011;29836;52.286;9.576;2024-02-21T07:29:56;17.73;;;7.95;;
44169;SDS011;29836;52.286;9.576;2024-02-21T07:32:22;20.33;;;8.52;;
44169;SDS011;29836;52.286;9.576;2024-02-21T07:34:47;19.65;;;8.85;;
44169;SDS011;29836;52.286;9.576;2024-02-21T07:37:13;18.60;;;8.93;;
44169;SDS011;29836;52.286;9.576;2024-02-21T07:39:38;18.92;;;8.80;;
44169;SDS011;29836;52.286;9.576;2024-02-21T07:42:04;19.40;;;8.77;;
44169;SDS011;29836;52.286;9.576;2024-02-21T07:44:30;17.17;;;8.57;;
44169;SDS011;29836;52.286;9.576;2024-02-21T07:46:57;20.73;;;7.72;;
44169;SDS011;29836;52.286;9.576;2024-02-21T07:49:23;18.70;;;8.45;;
44169;SDS011;29836;52.286;9.576;2024-02-21T07:51:48;17.05;;;7.78;;
44169;SDS011;29836;52.286;9.576;2024-02-21T07:54:14;16.95;;;7.95;;
44169;SDS011;29836;52.286;9.576;2024-02-21T07:56:39;18.55;;;8.07;;
44169;SDS011;29836;52.286;9.576;2024-02-21T07:59:05;13.80;;;7.10;;
44169;SDS011;29836;52.286;9.576;2024-02-21T08:01:30;19.27;;;8.45;;
44169;SDS011;29836;52.286;9.576;2024-02-21T08:03:56;21.40;;;8.93;;
44169;SDS011;29836;52.286;9.576;2024-02-21T08:06:21;19.25;;;7.57;;
44169;SDS011;29836;52.286;9.576;2024-02-21T08:08:47;15.35;;;6.82;;
44169;SDS011;29836;52.286;9.576;2024-02-21T08:11:13;15.43;;;8.02;;
44169;SDS011;29836;52.286;9.576;2024-02-21T08:13:38;12.82;;;7.10;;
44169;SDS011;29836;52.286;9.576;2024-02-21T08:16:04;17.83;;;7.57;;
44169;SDS011;29836;52.286;9.576;2024-02-21T08:18:30;15.25;;;6.63;;
44169;SDS011;29836;52.286;9.576;2024-02-21T08:20:55;16.02;;;7.32;;
44169;SDS011;29836;52.286;9.576;2024-02-21T08:23:22;16.67;;;7.35;;
44169;SDS011;29836;52.286;9.576;2024-02-21T08:25:49;14.05;;;7.15;;
44169;SDS011;29836;52.286;9.576;2024-02-21T08:28:14;23.13;;;8.32;;
44169;SDS011;29836;52.286;9.576;2024-02-21T08:30:40;16.55;;;6.97;;
44169;SDS011;29836;52.286;9.576;2024-02-21T08:33:09;14.93;;;6.55;;
44169;SDS011;29836;52.286;9.576;2024-02-21T08:35:34;13.48;;;6.40;;
44169;SDS011;29836;52.286;9.576;2024-02-21T08:38:00;15.52;;;6.47;;
44169;SDS011;29836;52.286;9.576;2024-02-21T08:40:25;16.15;;;6.38;;
44169;SDS011;29836;52.286;9.576;2024-02-21T08:42:51;15.02;;;6.65;;
44169;SDS011;29836;52.286;9.576;2024-02-21T08:45:18;17.63;;;6.32;;
44169;SDS011;29836;52.286;9.576;2024-02-21T08:47:44;14.35;;;6.30;;
44169;SDS011;29836;52.286;9.576;2024-02-21T08:50:11;14.27;;;5.90;;
44169;SDS011;29836;52.286;9.576;2024-02-21T08:52:37;15.05;;;5.25;;
44169;SDS011;29836;52.286;9.576;2024-02-21T08:55:02;10.02;;;4.97;;
44169;SDS011;29836;52.286;9.576;2024-02-21T08:57:28;14.77;;;5.95;;
44169;SDS011;29836;52.286;9.576;2024-02-21T08:59:54;15.13;;;5.70;;
44169;SDS011;29836;52.286;9.576;2024-02-21T09:02:19;12.38;;;5.63;;
44169;SDS011;29836;52.286;9.576;2024-02-21T09:04:45;13.45;;;5.10;;
44169;SDS011;29836;52.286;9.576;2024-02-21T09:07:10;14.55;;;4.95;;
44169;SDS011;29836;52.286;9.576;2024-02-21T09:09:36;15.02;;;4.90;;
44169;SDS011;29836;52.286;9.576;2024-02-21T09:12:04;9.40;;;4.88;;
44169;SDS011;29836;52.286;9.576;2024-02-21T09:14:31;11.32;;;4.78;;
44169;SDS011;29836;52.286;9.576;2024-02-21T09:16:57;10.85;;;4.30;;
44169;SDS011;29836;52.286;9.576;2024-02-21T09:19:23;8.55;;;4.03;;
44169;SDS011;29836;52.286;9.576;2024-02-21T09:21:48;10.07;;;4.28;;
44169;SDS011;29836;52.286;9.576;2024-02-21T09:24:14;14.02;;;4.68;;
44169;SDS011;29836;52.286;9.576;2024-02-21T09:26:39;9.07;;;4.20;;
44169;SDS011;29836;52.286;9.576;2024-02-21T09:29:05;12.77;;;4.55;;
44169;SDS011;29836;52.286;9.576;2024-02-21T09:31:30;9.25;;;4.38;;
44169;SDS011;29836;52.286;9.576;2024-02-21T09:33:56;8.32;;;3.75;;
44169;SDS011;29836;52.286;9.576;2024-02-21T09:36:22;8.27;;;4.03;;
44169;SDS011;29836;52.286;9.576;2024-02-21T09:38:48;13.82;;;4.25;;
44169;SDS011;29836;52.286;9.576;2024-02-21T09:41:17;6.82;;;4.20;;
44169;SDS011;29836;52.286;9.576;2024-02-21T09:43:44;7.47;;;3.42;;
44169;SDS011;29836;52.286;9.576;2024-02-21T09:46:15;10.27;;;4.00;;
44169;SDS011;29836;52.286;9.576;2024-02-21T09:48:50;13.57;;;4.32;;
44169;SDS011;29836;52.286;9.576;2024-02-21T09:51:35;10.70;;;4.00;;
44169;SDS011;29836;52.286;9.576;2024-02-21T09:54:03;9.30;;;4.30;;
44169;SDS011;29836;52.286;9.576;2024-02-21T09:56:29;10.20;;;3.97;;
44169;SDS011;29836;52.286;9.576;2024-02-21T09:58:55;7.97;;;3.60;;
44169;SDS011;29836;52.286;9.576;2024-02-21T10:01:22;7.75;;;3.33;;
44169;SDS011;29836;52.286;9.576;2024-02-21T10:03:48;8.57;;;3.50;;
44169;SDS011;29836;52.286;9.576;2024-02-21T10:06:13;11.43;;;3.72;;
44169;SDS011;29836;52.286;9.576;2024-02-21T10:08:39;9.82;;;3.53;;
44169;SDS011;29836;52.286;9.576;2024-02-21T10:11:04;8.52;;;3.50;;
44169;SDS011;29836;52.286;9.576;2024-02-21T10:13:30;10.68;;;3.30;;
44169;SDS011;29836;52.286;9.576;2024-02-21T10:16:02;8.50;;;3.45;;
44169;SDS011;29836;52.286;9.576;2024-02-21T10:18:28;8.48;;;3.17;;
44169;SDS011;29836;52.286;9.576;2024-02-21T10:21:01;9.27;;;2.83;;
44169;SDS011;29836;52.286;9.576;2024-02-21T10:23:27;7.30;;;2.70;;
44169;SDS011;29836;52.286;9.576;2024-02-21T10:25:53;5.32;;;3.03;;
44169;SDS011;29836;52.286;9.576;2024-02-21T10:28:18;8.55;;;2.83;;
44169;SDS011;29836;52.286;9.576;2024-02-21T10:30:51;5.63;;;2.80;;
44169;SDS011;29836;52.286;9.576;2024-02-21T10:33:17;8.07;;;2.80;;
44169;SDS011;29836;52.286;9.576;2024-02-21T10:35:45;9.88;;;2.60;;
44169;SDS011;29836;52.286;9.576;2024-02-21T10:38:12;5.55;;;2.40;;
44169;SDS011;29836;52.286;9.576;2024-02-21T10:40:37;7.88;;;2.67;;
44169;SDS011;29836;52.286;9.576;2024-02-21T10:43:03;5.70;;;2.38;;
44169;SDS011;29836;52.286;9.576;2024-02-21T10:45:36;5.85;;;2.45;;
44169;SDS011;29836;52.286;9.576;2024-02-21T10:48:08;8.57;;;2.58;;
44169;SDS011;29836;52.286;9.576;2024-02-21T10:53:41;5.78;;;2.15;;
44169;SDS011;29836;52.286;9.576;2024-02-21T10:56:33;6.93;;;2.15;;
44169;SDS011;29836;52.286;9.576;2024-02-21T10:59:02;7.93;;;2.30;;
44169;SDS011;29836;52.286;9.576;2024-02-21T11:01:29;4.80;;;2.10;;
44169;SDS011;29836;52.286;9.576;2024-02-21T11:03:57;5.38;;;2.40;;
44169;SDS011;29836;52.286;9.576;2024-02-21T11:06:25;7.05;;;2.60;;
44169;SDS011;29836;52.286;9.576;2024-02-21T11:11:29;9.45;;;2.08;;
44169;SDS011;29836;52.286;9.576;2024-02-21T11:14:08;5.10;;;1.95;;
44169;SDS011;29836;52.286;9.576;2024-02-21T11:16:44;6.75;;;2.50;;
44169;SDS011;29836;52.286;9.576;2024-02-21T11:19:20;5.18;;;2.00;;
44169;SDS011;29836;52.286;9.576;2024-02-21T11:21:47;5.95;;;2.50;;
44169;SDS011;29836;52.286;9.576;2024-02-21T11:24:13;4.15;;;1.90;;
44169;SDS011;29836;52.286;9.576;2024-02-21T11:26:50;5.88;;;2.28;;
44169;SDS011;29836;52.286;9.576;2024-02-21T11:29:15;4.50;;;1.77;;
44169;SDS011;29836;52.286;9.576;2024-02-21T11:31:48;7.28;;;2.00;;
44169;SDS011;29836;52.286;9.576;2024-02-21T11:34:17;4.45;;;2.15;;
44169;SDS011;29836;52.286;9.576;2024-02-21T11:36:47;7.65;;;2.03;;
44169;SDS011;29836;52.286;9.576;2024-02-21T11:39:26;5.95;;;2.28;;
44169;SDS011;29836;52.286;9.576;2024-02-21T11:42:05;5.13;;;2.17;;
44169;SDS011;29836;52.286;9.576;2024-02-21T11:44:32;6.53;;;2.30;;
44169;SDS011;29836;52.286;9.576;2024-02-21T11:46:59;7.00;;;2.42;;
44169;SDS011;29836;52.286;9.576;2024-02-21T11:49:25;5.22;;;2.08;;
44169;SDS011;29836;52.286;9.576;2024-02-21T11:51:58;4.38;;;2.25;;
44169;SDS011;29836;52.286;9.576;2024-02-21T11:54:29;7.35;;;2.15;;
44169;SDS011;29836;52.286;9.576;2024-02-21T11:56:55;7.78;;;2.60;;
44169;SDS011;29836;52.286;9.576;2024-02-21T11:59:21;6.78;;;2.30;;
44169;SDS011;29836;52.286;9.576;2024-02-21T12:01:47;6.05;;;2.40;;
44169;SDS011;29836;52.286;9.576;2024-02-21T12:04:13;4.95;;;2.53;;
44169;SDS011;29836;52.286;9.576;2024-02-21T12:06:42;4.55;;;2.30;;
44169;SDS011;29836;52.286;9.576;2024-02-21T12:09:09;5.93;;;2.60;;
44169;SDS011;29836;52.286;9.576;2024-02-21T12:11:34;6.90;;;2.70;;
44169;SDS011;29836;52.286;9.576;2024-02-21T12:14:03;6.40;;;3.13;;
44169;SDS011;29836;52.286;9.576;2024-02-21T12:16:33;6.72;;;3.08;;
44169;SDS011;29836;52.286;9.576;2024-02-21T12:18:59;11.10;;;3.05;;
44169;SDS011;29836;52.286;9.576;2024-02-21T12:21:26;6.18;;;2.80;;
44169;SDS011;29836;52.286;9.576;2024-02-21T12:23:55;7.53;;;3.50;;
44169;SDS011;29836;52.286;9.576;2024-02-21T12:26:21;6.80;;;3.53;;
44169;SDS011;29836;52.286;9.576;2024-02-21T12:28:47;6.70;;;3.67;;
44169;SDS011;29836;52.286;9.576;2024-02-21T12:31:12;8.07;;;3.47;;
44169;SDS011;29836;52.286;9.576;2024-02-21T12:33:38;7.78;;;3.15;;
44169;SDS011;29836;52.286;9.576;2024-02-21T12:36:04;6.95;;;3.47;;
44169;SDS011;29836;52.286;9.576;2024-02-21T12:38:30;9.85;;;3.45;;
44169;SDS011;29836;52.286;9.576;2024-02-21T12:40:55;7.18;;;3.63;;
44169;SDS011;29836;52.286;9.576;2024-02-21T12:43:22;10.57;;;3.90;;
44169;SDS011;29836;52.286;9.576;2024-02-21T12:45:48;9.60;;;4.35;;
44169;SDS011;29836;52.286;9.576;2024-02-21T12:48:14;8.73;;;4.13;;
44169;SDS011;29836;52.286;9.576;2024-02-21T12:50:40;8.38;;;4.43;;
44169;SDS011;29836;52.286;9.576;2024-02-21T12:53:12;9.65;;;4.72;;
44169;SDS011;29836;52.286;9.576;2024-02-21T12:55:38;9.65;;;4.13;;
44169;SDS011;29836;52.286;9.576;2024-02-21T12:58:04;6.50;;;4.18;;
44169;SDS011;29836;52.286;9.576;2024-02-21T13:00:31;6.47;;;3.88;;
44169;SDS011;29836;52.286;9.576;2024-02-21T13:02:57;7.20;;;3.50;;
44169;SDS011;29836;52.286;9.576;2024-02-21T13:05:23;6.65;;;3.53;;
44169;SDS011;29836;52.286;9.576;2024-02-21T13:07:48;6.93;;;3.53;;
44169;SDS011;29836;52.286;9.576;2024-02-21T13:10:14;9.20;;;3.72;;
44169;SDS011;29836;52.286;9.576;2024-02-21T13:12:40;8.32;;;3.10;;
44169;SDS011;29836;52.286;9.576;2024-02-21T13:15:05;5.78;;;3.05;;
44169;SDS011;29836;52.286;9.576;2024-02-21T13:17:31;4.40;;;2.65;;
44169;SDS011;29836;52.286;9.576;2024-02-21T13:19:58;7.85;;;3.63;;
44169;SDS011;29836;52.286;9.576;2024-02-21T13:22:23;8.35;;;2.80;;
44169;SDS011;29836;52.286;9.576;2024-02-21T13:24:51;6.57;;;2.70;;
44169;SDS011;29836;52.286;9.576;2024-02-21T13:27:17;6.72;;;3.17;;
44169;SDS011;29836;52.286;9.576;2024-02-21T13:29:42;6.13;;;3.10;;
44169;SDS011;29836;52.286;9.576;2024-02-21T13:32:08;9.52;;;3.15;;
44169;SDS011;29836;52.286;9.576;2024-02-21T13:34:33;5.95;;;3.50;;
44169;SDS011;29836;52.286;9.576;2024-02-21T13:36:59;26.55;;;10.63;;
44169;SDS011;29836;52.286;9.576;2024-02-21T13:39:25;14.45;;;6.60;;
44169;SDS011;29836;52.286;9.576;2024-02-21T13:41:50;8.55;;;3.13;;
44169;SDS011;29836;52.286;9.576;2024-02-21T13:44:16;5.25;;;2.00;;
44169;SDS011;29836;52.286;9.576;2024-02-21T13:46:41;4.80;;;2.15;;
44169;SDS011;29836;52.286;9.576;2024-02-21T13:49:07;8.10;;;2.53;;
44169;SDS011;29836;52.286;9.576;2024-02-21T13:51:33;4.70;;;2.10;;
44169;SDS011;29836;52.286;9.576;2024-02-21T13:54:01;7.13;;;2.78;;
44169;SDS011;29836;52.286;9.576;2024-02-21T13:56:28;6.35;;;2.35;;
44169;SDS011;29836;52.286;9.576;2024-02-21T13:58:53;7.45;;;2.10;;
44169;SDS011;29836;52.286;9.576;2024-02-21T14:01:19;6.60;;;2.05;;
44169;SDS011;29836;52.286;9.576;2024-02-21T14:03:44;5.05;;;1.70;;
44169;SDS011;29836;52.286;9.576;2024-02-21T14:06:10;5.30;;;2.00;;
44169;SDS011;29836;52.286;9.576;2024-02-21T14:08:35;6.22;;;2.13;;
44169;SDS011;29836;52.286;9.576;2024-02-21T14:11:02;5.35;;;2.47;;
44169;SDS011;29836;52.286;9.576;2024-02-21T14:13:27;5.13;;;1.65;;
44169;SDS011;29836;52.286;9.576;2024-02-21T14:15:53;4.63;;;1.60;;
44169;SDS011;29836;52.286;9.576;2024-02-21T14:18:19;5.60;;;1.63;;
44169;SDS011;29836;52.286;9.576;2024-02-21T14:20:44;4.20;;;1.63;;
44169;SDS011;29836;52.286;9.576;2024-02-21T14:23:11;4.78;;;1.58;;
44169;SDS011;29836;52.286;9.576;2024-02-21T14:25:38;4.43;;;1.73;;
44169;SDS011;29836;52.286;9.576;2024-02-21T14:28:04;4.78;;;1.70;;
44169;SDS011;29836;52.286;9.576;2024-02-21T14:30:30;7.07;;;1.63;;
44169;SDS011;29836;52.286;9.576;2024-02-21T14:32:56;5.38;;;1.60;;
44169;SDS011;29836;52.286;9.576;2024-02-21T14:35:21;6.50;;;1.70;;
44169;SDS011;29836;52.286;9.576;2024-02-21T14:37:47;6.43;;;1.85;;